createdAt,value
2023-03-29T00:00:26.556Z,65.58
2023-03-29T00:01:35.476Z,66.63
2023-03-29T00:02:26.639Z,65.03
2023-03-29T00:03:26.617Z,62.05
2023-03-29T00:04:37.023Z,65.22
2023-03-29T00:05:26.761Z,64.53
2023-03-29T00:08:55.955Z,61.58
2023-03-29T00:09:56.128Z,62.49
2023-03-29T00:10:55.899Z,63.71
2023-03-29T00:11:55.863Z,64.71
2023-03-29T00:13:06.638Z,64.45
2023-03-29T00:13:56.049Z,62.28
2023-03-29T00:15:06.071Z,64.80
2023-03-29T00:15:55.973Z,63.59
2023-03-29T00:16:56.018Z,63.34
2023-03-29T00:17:55.878Z,62.96
2023-03-29T00:18:55.789Z,62.61
2023-03-29T00:19:55.758Z,66.00
2023-03-29T00:20:55.804Z,61.30
2023-03-29T00:25:26.659Z,65.73
2023-03-29T00:26:26.601Z,66.68
2023-03-29T00:27:26.517Z,65.01
2023-03-29T00:28:26.490Z,66.29
2023-03-29T00:29:26.469Z,64.74
2023-03-29T00:30:26.477Z,65.23
2023-03-29T00:31:26.531Z,66.53
2023-03-29T00:36:07.626Z,66.78
2023-03-29T00:37:07.508Z,63.63
2023-03-29T00:38:07.417Z,65.26
2023-03-29T00:39:07.395Z,64.84
2023-03-29T00:40:07.405Z,64.76
2023-03-29T00:41:07.350Z,67.25
2023-03-29T00:42:07.380Z,65.53
2023-03-29T00:43:07.360Z,65.59
2023-03-29T00:57:45.476Z,63.77
2023-03-29T00:58:45.712Z,63.70
2023-03-29T00:59:41.337Z,62.61
2023-03-29T01:00:46.926Z,65.75
2023-03-29T01:01:44.458Z,63.70
2023-03-29T01:02:43.582Z,65.22
2023-03-29T01:03:41.010Z,65.89
2023-03-29T01:08:17.886Z,65.42
2023-03-29T01:09:17.802Z,65.32
2023-03-29T01:10:17.756Z,65.72
2023-03-29T01:11:17.841Z,65.33
2023-03-29T01:12:28.262Z,65.30
2023-03-29T01:13:19.484Z,64.46
2023-03-29T01:14:19.018Z,65.42
2023-03-29T01:15:18.867Z,65.77
2023-03-29T01:16:54.056Z,66.98
2023-03-29T01:17:19.021Z,64.97
2023-03-29T01:18:18.982Z,64.31
2023-03-29T01:19:18.751Z,64.63
2023-03-29T01:20:18.737Z,64.24
2023-03-29T01:21:18.646Z,68.05
2023-03-29T01:22:18.697Z,67.13
2023-03-29T01:26:48.241Z,65.23
2023-03-29T01:27:48.312Z,62.41
2023-03-29T01:28:48.173Z,64.43
2023-03-29T01:29:48.122Z,63.10
2023-03-29T01:30:48.152Z,64.34
2023-03-29T01:31:48.133Z,64.65
2023-03-29T01:32:48.150Z,65.07
2023-03-29T01:33:48.075Z,65.66
2023-03-29T01:37:41.446Z,65.73
2023-03-29T01:38:41.382Z,66.29
2023-03-29T01:39:41.453Z,64.97
2023-03-29T01:40:41.266Z,63.88
2023-03-29T01:41:41.286Z,65.05
2023-03-29T01:42:41.223Z,64.88
2023-03-29T01:43:41.203Z,64.78
2023-03-29T01:44:41.234Z,65.34
2023-03-29T01:45:41.240Z,62.42
2023-03-29T01:46:41.208Z,64.59
2023-03-29T01:47:41.208Z,67.26
2023-03-29T01:48:41.143Z,65.71
2023-03-29T01:49:41.124Z,65.34
2023-03-29T01:50:41.114Z,63.89
2023-03-29T01:51:41.138Z,65.00
2023-03-29T01:52:41.104Z,65.38
2023-03-29T01:53:41.071Z,65.86
2023-03-29T01:54:41.067Z,65.55
2023-03-29T01:55:41.051Z,65.51
2023-03-29T01:56:41.109Z,66.60
2023-03-29T01:57:41.034Z,63.72
2023-03-29T01:58:41.019Z,63.07
2023-03-29T01:59:40.995Z,65.85
2023-03-29T02:00:40.982Z,63.02
2023-03-29T02:01:41.018Z,66.04
2023-03-29T02:02:41.077Z,65.09
2023-03-29T02:03:41.000Z,65.06
2023-03-29T02:04:40.944Z,64.96
2023-03-29T02:05:40.921Z,65.02
2023-03-29T02:06:40.918Z,64.70
2023-03-29T02:07:40.935Z,65.00
2023-03-29T02:08:40.917Z,63.84
2023-03-29T02:09:40.883Z,63.02
2023-03-29T02:10:40.866Z,63.77
2023-03-29T02:11:40.850Z,63.30
2023-03-29T02:12:40.902Z,65.24
2023-03-29T02:13:40.827Z,63.08
2023-03-29T02:14:40.992Z,65.04
2023-03-29T02:15:40.880Z,63.43
2023-03-29T02:16:40.811Z,64.64
2023-03-29T02:17:40.838Z,64.46
2023-03-29T02:18:40.800Z,63.05
2023-03-29T02:19:40.775Z,64.27
2023-03-29T02:20:40.741Z,63.43
2023-03-29T02:21:40.744Z,64.76
2023-03-29T02:22:40.718Z,64.40
2023-03-29T02:23:40.707Z,64.02
2023-03-29T02:24:40.748Z,64.32
2023-03-29T02:25:40.697Z,65.44
2023-03-29T02:26:40.680Z,63.64
2023-03-29T02:27:40.661Z,66.69
2023-03-29T02:28:40.655Z,65.45
2023-03-29T02:29:40.693Z,64.37
2023-03-29T02:30:40.677Z,64.27
2023-03-29T02:31:40.633Z,65.09
2023-03-29T02:32:40.612Z,64.69
2023-03-29T02:33:40.639Z,65.36
2023-03-29T02:34:40.580Z,63.94
2023-03-29T02:35:40.770Z,63.94
2023-03-29T02:36:40.567Z,63.49
2023-03-29T02:37:40.534Z,64.06
2023-03-29T02:38:40.531Z,64.05
2023-03-29T02:39:40.524Z,63.27
2023-03-29T02:40:40.523Z,64.11
2023-03-29T02:41:40.513Z,65.07
2023-03-29T02:42:40.481Z,64.66
2023-03-29T02:43:41.604Z,66.78
2023-03-29T02:44:41.587Z,65.79
2023-03-29T02:45:41.650Z,65.74
2023-03-29T02:46:41.613Z,67.17
2023-03-29T02:47:41.643Z,64.58
2023-03-29T02:48:41.534Z,64.01
2023-03-29T02:49:41.539Z,65.49
2023-03-29T02:50:41.739Z,64.72
2023-03-29T02:51:41.496Z,63.73
2023-03-29T02:52:41.513Z,65.95
2023-03-29T02:53:41.480Z,66.56
2023-03-29T02:54:41.476Z,66.61
2023-03-29T02:55:41.571Z,67.26
2023-03-29T02:56:41.514Z,66.73
2023-03-29T02:57:41.423Z,66.67
2023-03-29T02:58:41.438Z,66.75
2023-03-29T02:59:41.441Z,64.44
2023-03-29T03:00:41.428Z,66.56
2023-03-29T03:01:41.456Z,64.98
2023-03-29T03:02:41.428Z,65.21
2023-03-29T03:03:41.508Z,65.14
2023-03-29T03:04:41.374Z,65.46
2023-03-29T03:05:41.348Z,66.13
2023-03-29T03:06:41.533Z,66.60
2023-03-29T03:07:41.378Z,66.70
2023-03-29T03:08:41.301Z,66.06
2023-03-29T03:09:41.314Z,66.81
2023-03-29T03:10:41.269Z,65.64
2023-03-29T03:11:41.274Z,66.46
2023-03-29T03:12:41.328Z,66.20
2023-03-29T03:13:41.257Z,65.73
2023-03-29T03:14:41.228Z,65.41
2023-03-29T03:15:41.242Z,66.51
2023-03-29T03:16:41.322Z,64.28
2023-03-29T03:17:41.259Z,66.19
2023-03-29T03:18:41.195Z,66.52
2023-03-29T03:19:41.612Z,64.76
2023-03-29T03:20:41.178Z,67.78
2023-03-29T03:21:41.167Z,65.19
2023-03-29T03:22:41.178Z,66.13
2023-03-29T03:23:41.132Z,66.52
2023-03-29T03:24:41.130Z,68.11
2023-03-29T03:25:41.088Z,66.17
2023-03-29T03:26:41.085Z,67.01
2023-03-29T03:27:41.112Z,66.54
2023-03-29T03:28:41.441Z,64.29
2023-03-29T03:29:41.067Z,65.37
2023-03-29T03:30:41.047Z,65.77
2023-03-29T03:31:41.064Z,66.19
2023-03-29T03:32:41.099Z,65.21
2023-03-29T03:33:41.007Z,66.27
2023-03-29T03:34:41.043Z,64.66
2023-03-29T03:35:41.036Z,65.53
2023-03-29T03:36:40.974Z,66.11
2023-03-29T03:37:41.002Z,67.69
2023-03-29T03:38:40.983Z,66.31
2023-03-29T03:39:40.956Z,66.15
2023-03-29T03:40:40.984Z,66.66
2023-03-29T03:41:40.939Z,66.57
2023-03-29T03:42:40.936Z,65.96
2023-03-29T03:43:40.987Z,64.96
2023-03-29T03:44:40.913Z,63.67
2023-03-29T03:45:40.928Z,65.37
2023-03-29T03:46:40.875Z,64.62
2023-03-29T03:47:40.930Z,66.26
2023-03-29T03:48:40.865Z,65.78
2023-03-29T03:49:40.850Z,64.36
2023-03-29T03:50:40.820Z,65.61
2023-03-29T03:51:40.836Z,65.16
2023-03-29T03:52:40.801Z,65.31
2023-03-29T03:53:40.766Z,63.46
2023-03-29T03:54:40.796Z,65.27
2023-03-29T03:55:40.794Z,64.99
2023-03-29T03:56:40.778Z,64.70
2023-03-29T03:57:40.825Z,66.10
2023-03-29T03:58:40.756Z,63.66
2023-03-29T03:59:40.743Z,66.73
2023-03-29T04:03:28.491Z,66.14
2023-03-29T04:04:28.495Z,65.40
2023-03-29T04:05:28.541Z,66.65
2023-03-29T04:06:28.262Z,66.11
2023-03-29T04:07:28.250Z,63.95
2023-03-29T04:14:35.876Z,65.36
2023-03-29T04:15:35.846Z,66.21
2023-03-29T04:16:35.806Z,65.47
2023-03-29T04:17:35.935Z,64.40
2023-03-29T04:18:35.724Z,64.73
2023-03-29T04:19:35.676Z,65.49
2023-03-29T04:20:35.641Z,65.60
2023-03-29T04:21:35.628Z,64.60
2023-03-29T04:22:35.653Z,63.96
2023-03-29T04:23:35.601Z,65.50
2023-03-29T04:24:35.595Z,64.45
2023-03-29T04:25:35.578Z,62.93
2023-03-29T04:26:35.569Z,65.68
2023-03-29T04:27:35.577Z,66.33
2023-03-29T04:28:35.580Z,66.54
2023-03-29T04:29:35.534Z,66.60
2023-03-29T04:30:35.530Z,66.47
2023-03-29T04:31:35.526Z,65.81
2023-03-29T04:32:35.573Z,67.04
2023-03-29T04:33:35.532Z,65.32
2023-03-29T04:34:35.492Z,63.99
2023-03-29T04:35:35.497Z,66.31
2023-03-29T04:36:35.484Z,67.35
2023-03-29T04:37:35.450Z,65.52
2023-03-29T04:38:35.460Z,65.01
2023-03-29T04:39:35.472Z,65.17
2023-03-29T04:40:35.426Z,66.77
2023-03-29T04:41:35.400Z,66.59
2023-03-29T04:42:35.393Z,65.44
2023-03-29T04:43:35.394Z,63.62
2023-03-29T04:44:35.593Z,64.26
2023-03-29T04:45:35.383Z,64.22
2023-03-29T04:46:35.430Z,65.60
2023-03-29T04:47:35.353Z,66.09
2023-03-29T04:48:35.323Z,65.30
2023-03-29T04:49:35.313Z,65.60
2023-03-29T04:50:35.349Z,66.53
2023-03-29T04:51:35.296Z,65.00
2023-03-29T04:52:35.281Z,65.53
2023-03-29T04:53:35.268Z,65.68
2023-03-29T04:54:36.433Z,64.09
2023-03-29T04:55:36.426Z,65.01
2023-03-29T04:56:36.356Z,64.43
2023-03-29T04:57:36.385Z,64.81
2023-03-29T04:58:36.344Z,64.79
2023-03-29T04:59:36.348Z,63.44
2023-03-29T05:00:36.489Z,66.25
2023-03-29T05:01:36.434Z,65.25
2023-03-29T05:02:36.324Z,65.72
2023-03-29T05:03:36.301Z,65.04
2023-03-29T05:04:36.292Z,65.68
2023-03-29T05:05:36.296Z,65.88
2023-03-29T05:06:36.265Z,66.89
2023-03-29T05:07:36.228Z,65.27
2023-03-29T05:08:36.239Z,65.46
2023-03-29T05:09:36.199Z,65.17
2023-03-29T05:10:36.223Z,66.43
2023-03-29T05:11:36.218Z,65.21
2023-03-29T05:12:36.182Z,64.92
2023-03-29T05:13:36.178Z,65.48
2023-03-29T05:14:36.172Z,66.28
2023-03-29T05:15:36.138Z,66.17
2023-03-29T05:16:36.203Z,65.64
2023-03-29T05:17:36.220Z,66.57
2023-03-29T05:18:36.098Z,67.24
2023-03-29T05:19:36.100Z,66.35
2023-03-29T05:20:36.104Z,65.68
2023-03-29T05:21:36.084Z,65.96
2023-03-29T05:22:36.067Z,67.99
2023-03-29T05:23:36.051Z,66.49
2023-03-29T05:24:36.060Z,67.43
2023-03-29T05:25:36.023Z,67.83
2023-03-29T05:26:35.997Z,67.73
2023-03-29T05:27:36.013Z,67.62
2023-03-29T05:28:36.004Z,65.38
2023-03-29T05:29:36.005Z,67.27
2023-03-29T05:30:35.978Z,67.62
2023-03-29T05:31:35.994Z,66.20
2023-03-29T05:32:36.012Z,65.61
2023-03-29T05:33:35.934Z,66.87
2023-03-29T05:34:35.923Z,65.42
2023-03-29T05:35:36.042Z,67.17
2023-03-29T05:36:36.063Z,64.19
2023-03-29T05:37:35.936Z,63.62
2023-03-29T05:38:35.938Z,65.04
2023-03-29T05:39:37.610Z,64.64
2023-03-29T05:40:35.875Z,66.47
2023-03-29T05:41:35.860Z,65.75
2023-03-29T05:42:35.833Z,64.43
2023-03-29T05:43:35.888Z,63.11
2023-03-29T05:44:35.817Z,65.55
2023-03-29T05:45:35.860Z,66.28
2023-03-29T05:46:35.787Z,65.15
2023-03-29T05:47:35.802Z,65.88
2023-03-29T05:48:35.812Z,67.49
2023-03-29T05:49:35.730Z,64.03
2023-03-29T05:50:35.754Z,64.11
2023-03-29T05:51:35.701Z,64.54
2023-03-29T05:52:35.694Z,66.01
2023-03-29T05:53:35.836Z,63.84
2023-03-29T05:54:35.699Z,65.17
2023-03-29T05:55:35.677Z,65.37
2023-03-29T05:56:36.057Z,64.52
2023-03-29T05:57:35.639Z,64.58
2023-03-29T05:58:35.652Z,64.76
2023-03-29T05:59:35.636Z,65.75
2023-03-29T06:00:35.606Z,67.14
2023-03-29T06:01:35.594Z,66.97
2023-03-29T06:02:35.630Z,64.89
2023-03-29T06:03:35.754Z,66.21
2023-03-29T06:04:35.657Z,66.93
2023-03-29T06:11:50.390Z,66.75
2023-03-29T06:12:50.419Z,66.31
2023-03-29T06:13:50.337Z,63.40
2023-03-29T06:14:50.500Z,64.79
2023-03-29T06:15:50.503Z,66.61
2023-03-29T06:16:50.412Z,69.03
2023-03-29T06:17:51.498Z,67.92
2023-03-29T06:18:51.385Z,66.87
2023-03-29T06:19:51.417Z,66.96
2023-03-29T06:20:52.353Z,65.92
2023-03-29T06:21:51.364Z,65.57
2023-03-29T06:23:02.196Z,66.04
2023-03-29T06:23:52.345Z,66.02
2023-03-29T06:24:51.336Z,67.91
2023-03-29T06:26:12.457Z,66.12
2023-03-29T06:26:52.684Z,67.66
2023-03-29T06:27:51.312Z,67.31
2023-03-29T06:28:52.356Z,66.57
2023-03-29T06:29:51.270Z,66.83
2023-03-29T06:30:51.354Z,66.94
2023-03-29T06:31:51.341Z,65.29
2023-03-29T06:32:51.261Z,64.68
2023-03-29T06:33:51.251Z,66.58
2023-03-29T06:34:51.217Z,66.76
2023-03-29T06:35:51.284Z,68.88
2023-03-29T06:36:51.238Z,67.02
2023-03-29T06:37:51.181Z,66.82
2023-03-29T06:38:51.152Z,66.27
2023-03-29T06:39:53.303Z,67.15
2023-03-29T06:40:51.143Z,66.96
2023-03-29T06:41:51.152Z,67.34
2023-03-29T06:42:51.121Z,66.84
2023-03-29T06:43:51.111Z,65.83
2023-03-29T06:44:51.083Z,65.65
2023-03-29T06:45:51.103Z,67.85
2023-03-29T06:46:51.170Z,66.83
2023-03-29T06:47:51.180Z,66.65
2023-03-29T06:48:51.068Z,65.81
2023-03-29T06:49:51.077Z,66.76
2023-03-29T06:50:51.060Z,68.65
2023-03-29T06:51:51.013Z,66.29
2023-03-29T06:52:51.077Z,67.75
2023-03-29T06:53:51.043Z,65.79
2023-03-29T06:54:50.985Z,65.37
2023-03-29T06:55:50.990Z,66.34
2023-03-29T06:56:51.009Z,68.17
2023-03-29T06:57:50.954Z,67.25
2023-03-29T06:58:51.009Z,67.07
2023-03-29T06:59:50.966Z,66.23
2023-03-29T07:00:51.932Z,65.89
2023-03-29T07:01:50.948Z,66.42
2023-03-29T07:02:50.944Z,67.09
2023-03-29T07:03:50.912Z,65.00
2023-03-29T07:04:51.053Z,67.87
2023-03-29T07:05:50.894Z,66.90
2023-03-29T07:06:50.848Z,66.81
2023-03-29T07:07:50.836Z,67.27
2023-03-29T07:08:50.877Z,66.30
2023-03-29T07:09:51.833Z,66.41
2023-03-29T07:10:50.855Z,65.76
2023-03-29T07:11:50.805Z,67.00
2023-03-29T07:12:50.813Z,66.62
2023-03-29T07:13:50.837Z,68.26
2023-03-29T07:14:50.770Z,66.96
2023-03-29T07:15:50.820Z,67.32
2023-03-29T07:16:50.728Z,66.32
2023-03-29T07:17:50.811Z,66.49
2023-03-29T07:18:50.718Z,65.73
2023-03-29T07:19:50.758Z,65.62
2023-03-29T07:20:50.697Z,65.82
2023-03-29T07:21:50.946Z,66.02
2023-03-29T07:22:50.684Z,67.17
2023-03-29T07:23:50.697Z,67.45
2023-03-29T07:24:50.801Z,67.67
2023-03-29T07:25:50.656Z,66.69
2023-03-29T07:27:03.228Z,66.87
2023-03-29T07:27:50.665Z,67.73
2023-03-29T07:28:50.587Z,66.70
2023-03-29T07:29:50.788Z,68.00
2023-03-29T07:30:50.613Z,67.13
2023-03-29T07:31:50.573Z,66.45
2023-03-29T07:32:50.642Z,66.92
2023-03-29T07:33:50.627Z,68.27
2023-03-29T07:34:50.563Z,66.85
2023-03-29T07:35:50.591Z,67.99
2023-03-29T07:36:50.565Z,66.62
2023-03-29T07:37:50.521Z,67.62
2023-03-29T07:38:50.511Z,67.79
2023-03-29T07:39:50.480Z,68.06
2023-03-29T07:40:50.610Z,67.49
2023-03-29T07:41:50.465Z,65.78
2023-03-29T07:42:50.449Z,66.07
2023-03-29T07:43:50.429Z,66.61
2023-03-29T07:44:50.415Z,67.12
2023-03-29T07:45:50.502Z,66.81
2023-03-29T07:46:50.465Z,66.80
2023-03-29T07:47:50.412Z,66.83
2023-03-29T07:48:50.398Z,66.92
2023-03-29T07:49:50.394Z,67.54
2023-03-29T07:50:50.346Z,67.76
2023-03-29T07:51:50.411Z,66.59
2023-03-29T07:52:50.368Z,66.92
2023-03-29T07:53:50.719Z,67.46
2023-03-29T07:54:50.344Z,66.60
2023-03-29T07:55:50.306Z,66.92
2023-03-29T07:56:50.312Z,66.96
2023-03-29T07:57:50.355Z,67.97
2023-03-29T07:58:50.286Z,65.86
2023-03-29T07:59:50.288Z,67.29
2023-03-29T08:00:50.324Z,67.28
2023-03-29T08:01:50.246Z,66.77
2023-03-29T08:02:50.613Z,67.15
2023-03-29T08:03:50.232Z,66.96
2023-03-29T08:04:50.240Z,67.35
2023-03-29T08:05:50.199Z,67.34
2023-03-29T08:06:50.199Z,65.70
2023-03-29T08:07:50.214Z,67.91
2023-03-29T08:08:50.175Z,67.03
2023-03-29T08:09:50.147Z,67.15
2023-03-29T08:10:50.131Z,66.26
2023-03-29T08:11:50.133Z,67.04
2023-03-29T08:12:50.161Z,66.99
2023-03-29T08:13:50.095Z,66.45
2023-03-29T08:14:50.137Z,65.89
2023-03-29T08:15:50.084Z,66.95
2023-03-29T08:16:50.110Z,65.10
2023-03-29T08:17:50.143Z,66.69
2023-03-29T08:18:50.082Z,67.30
2023-03-29T08:19:51.270Z,67.02
2023-03-29T08:20:50.074Z,66.44
2023-03-29T08:21:50.005Z,66.44
2023-03-29T08:22:49.981Z,66.57
2023-03-29T08:23:50.037Z,66.99
2023-03-29T08:24:49.970Z,67.63
2023-03-29T08:25:49.961Z,65.01
2023-03-29T08:26:49.965Z,64.74
2023-03-29T08:27:49.941Z,67.46
2023-03-29T08:28:49.919Z,67.26
2023-03-29T08:29:49.946Z,67.83
2023-03-29T08:30:49.918Z,66.36
2023-03-29T08:31:49.885Z,68.16
2023-03-29T08:32:52.185Z,66.07
2023-03-29T08:33:49.873Z,66.86
2023-03-29T08:34:49.881Z,66.69
2023-03-29T08:35:49.860Z,66.01
2023-03-29T08:36:49.840Z,66.45
2023-03-29T08:37:49.818Z,67.47
2023-03-29T08:38:49.814Z,66.83
2023-03-29T08:39:49.800Z,65.72
2023-03-29T08:40:49.795Z,66.09
2023-03-29T08:41:49.772Z,66.67
2023-03-29T08:42:49.770Z,66.33
2023-03-29T08:43:49.753Z,66.78
2023-03-29T08:44:49.759Z,66.67
2023-03-29T08:45:51.110Z,65.88
2023-03-29T08:46:49.780Z,67.17
2023-03-29T08:47:49.796Z,67.76
2023-03-29T08:48:50.380Z,67.61
2023-03-29T08:49:49.706Z,67.31
2023-03-29T08:50:49.689Z,68.19
2023-03-29T08:51:49.676Z,64.29
2023-03-29T08:52:49.645Z,66.47
2023-03-29T08:53:49.636Z,67.27
2023-03-29T08:54:49.625Z,66.83
2023-03-29T08:55:49.653Z,66.88
2023-03-29T08:56:49.815Z,67.58
2023-03-29T08:57:50.219Z,65.52
2023-03-29T08:58:49.592Z,65.91
2023-03-29T08:59:49.574Z,66.63
2023-03-29T09:00:49.558Z,66.87
2023-03-29T09:01:49.619Z,68.31
2023-03-29T09:02:49.572Z,68.14
2023-03-29T09:03:49.619Z,66.81
2023-03-29T09:04:49.506Z,67.77
2023-03-29T09:05:49.493Z,66.15
2023-03-29T09:06:49.505Z,66.56
2023-03-29T09:07:49.475Z,66.95
2023-03-29T09:08:49.486Z,68.14
2023-03-29T09:09:49.474Z,67.11
2023-03-29T09:10:49.435Z,67.90
2023-03-29T09:11:49.445Z,67.04
2023-03-29T09:12:49.500Z,65.97
2023-03-29T09:13:49.406Z,66.89
2023-03-29T09:14:49.400Z,66.09
2023-03-29T09:15:49.457Z,67.15
2023-03-29T09:16:49.403Z,67.32
2023-03-29T09:17:49.809Z,69.04
2023-03-29T09:18:49.337Z,67.30
2023-03-29T09:19:49.328Z,68.03
2023-03-29T09:20:49.313Z,63.97
2023-03-29T09:21:49.339Z,66.05
2023-03-29T09:22:49.297Z,65.84
2023-03-29T09:23:49.293Z,66.55
2023-03-29T09:24:49.269Z,67.83
2023-03-29T09:25:53.335Z,65.50
2023-03-29T09:26:49.242Z,66.48
2023-03-29T09:27:49.293Z,66.75
2023-03-29T09:28:49.236Z,65.96
2023-03-29T09:29:49.219Z,68.99
2023-03-29T09:30:49.214Z,68.53
2023-03-29T09:31:49.256Z,66.81
2023-03-29T09:32:49.238Z,68.87
2023-03-29T09:33:49.180Z,69.04
2023-03-29T09:34:49.162Z,68.34
2023-03-29T09:35:49.191Z,67.45
2023-03-29T09:36:49.161Z,69.15
2023-03-29T09:37:49.118Z,68.64
2023-03-29T09:38:49.136Z,68.06
2023-03-29T09:39:49.114Z,67.70
2023-03-29T09:40:49.105Z,66.61
2023-03-29T09:41:49.227Z,68.32
2023-03-29T09:42:49.065Z,68.31
2023-03-29T09:43:49.071Z,66.15
2023-03-29T09:44:49.051Z,66.66
2023-03-29T09:45:49.077Z,69.39
2023-03-29T09:46:49.028Z,66.94
2023-03-29T09:47:49.056Z,65.05
2023-03-29T09:48:49.034Z,65.47
2023-03-29T09:49:48.985Z,66.09
2023-03-29T09:50:48.978Z,66.48
2023-03-29T09:51:48.960Z,67.25
2023-03-29T09:52:48.948Z,67.33
2023-03-29T09:53:48.966Z,66.17
2023-03-29T09:54:48.935Z,66.88
2023-03-29T09:55:50.251Z,65.46
2023-03-29T09:56:48.941Z,66.82
2023-03-29T09:57:48.902Z,67.61
2023-03-29T09:58:48.939Z,68.39
2023-03-29T09:59:48.876Z,66.12
2023-03-29T10:00:48.970Z,67.11
2023-03-29T10:01:48.978Z,67.45
2023-03-29T10:02:48.968Z,66.75
2023-03-29T10:03:49.004Z,66.33
2023-03-29T10:04:48.834Z,67.01
2023-03-29T10:05:48.823Z,67.15
2023-03-29T10:06:48.819Z,66.66
2023-03-29T10:07:48.843Z,66.82
2023-03-29T10:08:48.820Z,68.42
2023-03-29T10:09:48.805Z,66.44
2023-03-29T10:10:48.773Z,66.47
2023-03-29T10:11:48.795Z,65.94
2023-03-29T10:12:48.741Z,65.17
2023-03-29T10:13:48.722Z,67.71
2023-03-29T10:14:49.487Z,67.41
2023-03-29T10:15:48.692Z,66.42
2023-03-29T10:16:48.708Z,66.02
2023-03-29T10:17:48.733Z,65.46
2023-03-29T10:18:48.672Z,66.27
2023-03-29T10:19:48.703Z,68.24
2023-03-29T10:20:48.653Z,65.02
2023-03-29T10:21:48.630Z,67.20
2023-03-29T10:22:48.635Z,66.23
2023-03-29T10:23:48.619Z,64.61
2023-03-29T10:24:48.631Z,66.62
2023-03-29T10:25:48.575Z,65.22
2023-03-29T10:26:48.628Z,67.25
2023-03-29T10:27:48.580Z,68.62
2023-03-29T10:28:48.555Z,65.72
2023-03-29T10:29:48.544Z,65.55
2023-03-29T10:30:48.712Z,67.43
2023-03-29T10:31:48.639Z,66.45
2023-03-29T10:32:48.567Z,67.15
2023-03-29T10:33:48.489Z,65.44
2023-03-29T10:34:48.509Z,67.68
2023-03-29T10:35:48.495Z,65.08
2023-03-29T10:36:48.475Z,67.71
2023-03-29T10:37:48.454Z,65.99
2023-03-29T10:38:48.436Z,64.86
2023-03-29T10:39:48.438Z,65.44
2023-03-29T10:40:48.446Z,66.71
2023-03-29T10:41:48.422Z,68.60
2023-03-29T10:42:48.396Z,68.61
2023-03-29T10:43:48.368Z,67.02
2023-03-29T10:44:48.363Z,67.87
2023-03-29T10:45:48.456Z,66.61
2023-03-29T10:46:48.358Z,68.06
2023-03-29T10:47:48.541Z,66.71
2023-03-29T10:48:48.339Z,67.83
2023-03-29T10:49:48.339Z,67.96
2023-03-29T10:50:48.289Z,67.27
2023-03-29T10:51:48.315Z,66.70
2023-03-29T10:52:48.282Z,66.15
2023-03-29T10:53:48.307Z,66.03
2023-03-29T10:54:48.270Z,67.41
2023-03-29T10:55:48.267Z,67.39
2023-03-29T10:56:49.089Z,66.26
2023-03-29T10:57:48.211Z,67.61
2023-03-29T10:58:48.204Z,67.86
2023-03-29T10:59:48.192Z,68.53
2023-03-29T11:00:48.177Z,66.91
2023-03-29T11:01:48.272Z,66.27
2023-03-29T11:02:48.236Z,66.20
2023-03-29T11:03:48.287Z,67.11
2023-03-29T11:04:48.127Z,68.58
2023-03-29T11:05:48.148Z,68.66
2023-03-29T11:06:48.185Z,68.14
2023-03-29T11:07:48.157Z,66.81
2023-03-29T11:08:48.106Z,66.93
2023-03-29T11:09:48.085Z,67.32
2023-03-29T11:10:48.078Z,67.68
2023-03-29T11:11:48.100Z,68.64
2023-03-29T11:12:48.066Z,66.47
2023-03-29T11:13:48.035Z,66.56
2023-03-29T11:14:48.011Z,67.02
2023-03-29T11:15:48.028Z,66.08
2023-03-29T11:16:47.993Z,68.32
2023-03-29T11:17:47.996Z,69.36
2023-03-29T11:18:47.998Z,67.27
2023-03-29T11:19:47.986Z,66.38
2023-03-29T11:20:47.935Z,66.37
2023-03-29T11:21:47.986Z,66.64
2023-03-29T11:22:47.936Z,66.48
2023-03-29T11:23:47.970Z,67.99
2023-03-29T11:24:47.930Z,67.02
2023-03-29T11:25:47.912Z,65.87
2023-03-29T11:26:47.883Z,67.37
2023-03-29T11:27:47.875Z,67.28
2023-03-29T11:28:47.865Z,68.83
2023-03-29T11:29:47.894Z,67.08
2023-03-29T11:30:48.033Z,65.83
2023-03-29T11:31:47.897Z,67.53
2023-03-29T11:32:47.874Z,67.56
2023-03-29T11:33:47.781Z,68.54
2023-03-29T11:34:47.838Z,69.16
2023-03-29T11:35:47.771Z,68.58
2023-03-29T11:36:47.747Z,66.85
2023-03-29T11:37:47.745Z,67.37
2023-03-29T11:38:47.706Z,68.35
2023-03-29T11:39:47.725Z,68.44
2023-03-29T11:40:47.763Z,67.06
2023-03-29T11:41:47.686Z,67.78
2023-03-29T11:42:48.191Z,68.71
2023-03-29T11:43:47.677Z,68.67
2023-03-29T11:44:47.662Z,67.36
2023-03-29T11:45:47.682Z,67.06
2023-03-29T11:46:47.701Z,69.50
2023-03-29T11:47:47.715Z,68.99
2023-03-29T11:48:47.605Z,66.86
2023-03-29T11:49:47.638Z,65.85
2023-03-29T11:50:47.591Z,64.98
2023-03-29T11:51:48.060Z,67.69
2023-03-29T11:52:47.555Z,67.13
2023-03-29T11:53:47.575Z,67.31
2023-03-29T11:54:47.569Z,67.91
2023-03-29T11:55:47.540Z,67.91
2023-03-29T11:56:47.785Z,67.08
2023-03-29T11:57:47.548Z,66.73
2023-03-29T11:58:47.521Z,67.29
2023-03-29T11:59:47.558Z,68.46
2023-03-29T12:00:47.509Z,67.90
2023-03-29T12:01:47.546Z,68.00
2023-03-29T12:02:47.860Z,67.29
2023-03-29T12:03:47.668Z,67.37
2023-03-29T12:04:48.451Z,66.83
2023-03-29T12:05:47.444Z,66.86
2023-03-29T12:06:47.502Z,69.55
2023-03-29T12:07:47.559Z,67.75
2023-03-29T12:08:47.385Z,67.18
2023-03-29T12:09:47.595Z,67.32
2023-03-29T12:10:47.399Z,67.37
2023-03-29T12:11:47.334Z,66.60
2023-03-29T12:12:47.342Z,66.66
2023-03-29T12:13:47.379Z,68.05
2023-03-29T12:14:47.402Z,67.06
2023-03-29T12:15:47.300Z,67.94
2023-03-29T12:16:47.301Z,68.02
2023-03-29T12:17:47.357Z,68.21
2023-03-29T12:18:47.310Z,70.44
2023-03-29T12:19:47.265Z,68.91
2023-03-29T12:20:47.300Z,67.35
2023-03-29T12:21:47.270Z,68.29
2023-03-29T12:22:47.231Z,69.69
2023-03-29T12:23:47.191Z,69.53
2023-03-29T12:24:47.230Z,68.05
2023-03-29T12:25:47.200Z,67.71
2023-03-29T12:26:47.322Z,68.25
2023-03-29T12:27:47.146Z,68.92
2023-03-29T12:28:47.177Z,67.12
2023-03-29T12:29:47.189Z,68.76
2023-03-29T12:30:47.135Z,69.59
2023-03-29T12:31:47.151Z,70.10
2023-03-29T12:32:47.156Z,69.84
2023-03-29T12:33:47.101Z,68.54
2023-03-29T12:34:47.129Z,68.86
2023-03-29T12:35:47.100Z,68.71
2023-03-29T12:36:47.041Z,70.05
2023-03-29T12:37:47.854Z,69.25
2023-03-29T12:38:47.039Z,68.67
2023-03-29T12:39:47.033Z,68.22
2023-03-29T12:40:47.044Z,68.24
2023-03-29T12:41:47.016Z,69.39
2023-03-29T12:42:47.018Z,70.86
2023-03-29T12:43:46.980Z,70.40
2023-03-29T12:44:46.982Z,69.08
2023-03-29T12:45:47.030Z,68.03
2023-03-29T12:46:47.691Z,69.38
2023-03-29T12:47:46.988Z,68.75
2023-03-29T12:48:46.923Z,67.02
2023-03-29T12:49:46.904Z,68.67
2023-03-29T12:50:46.911Z,68.68
2023-03-29T12:51:46.891Z,68.86
2023-03-29T12:52:47.063Z,69.33
2023-03-29T12:53:46.888Z,70.28
2023-03-29T12:54:46.875Z,69.57
2023-03-29T12:55:46.863Z,67.86
2023-03-29T12:56:46.878Z,68.43
2023-03-29T12:57:46.782Z,68.79
2023-03-29T12:58:47.771Z,68.36
2023-03-29T12:59:46.854Z,68.38
2023-03-29T13:00:46.780Z,68.92
2023-03-29T13:01:46.843Z,69.23
2023-03-29T13:02:46.924Z,68.88
2023-03-29T13:03:46.732Z,69.12
2023-03-29T13:04:46.739Z,67.90
2023-03-29T13:05:46.853Z,69.41
2023-03-29T13:06:46.715Z,69.22
2023-03-29T13:07:46.712Z,69.51
2023-03-29T13:08:46.661Z,69.18
2023-03-29T13:09:46.664Z,68.16
2023-03-29T13:10:46.647Z,68.68
2023-03-29T13:11:46.639Z,68.55
2023-03-29T13:12:46.681Z,67.75
2023-03-29T13:13:46.627Z,66.03
2023-03-29T13:14:46.608Z,68.03
2023-03-29T13:15:46.607Z,68.52
2023-03-29T13:16:46.597Z,67.70
2023-03-29T13:17:46.664Z,67.93
2023-03-29T13:18:46.553Z,66.66
2023-03-29T13:19:46.557Z,68.95
2023-03-29T13:20:46.554Z,70.24
2023-03-29T13:21:46.542Z,67.90
2023-03-29T13:22:46.522Z,68.16
2023-03-29T13:23:46.545Z,68.51
2023-03-29T13:24:46.506Z,70.99
2023-03-29T13:25:46.499Z,69.94
2023-03-29T13:26:46.468Z,69.82
2023-03-29T13:27:46.451Z,69.33
2023-03-29T13:28:46.491Z,68.90
2023-03-29T13:29:46.445Z,69.62
2023-03-29T13:30:46.433Z,70.07
2023-03-29T13:31:46.513Z,67.26
2023-03-29T13:32:46.487Z,68.52
2023-03-29T13:33:46.446Z,68.92
2023-03-29T13:34:46.548Z,68.21
2023-03-29T13:35:46.413Z,69.65
2023-03-29T13:36:46.359Z,69.58
2023-03-29T13:37:46.374Z,70.29
2023-03-29T13:38:46.358Z,69.61
2023-03-29T13:39:46.371Z,69.37
2023-03-29T13:40:46.359Z,69.28